createdAt,value
2023-02-12T00:05:34.056Z,56.27
2023-02-12T00:15:36.618Z,63.87
2023-02-12T00:36:35.150Z,51.53
2023-02-12T00:57:05.534Z,57.10
2023-02-12T01:53:35.826Z,48.60
2023-02-12T02:03:51.725Z,58.10
2023-02-12T02:14:10.426Z,53.67
2023-02-12T02:36:57.993Z,52.37
2023-02-12T02:42:07.941Z,56.63
2023-02-12T02:47:14.014Z,50.27
2023-02-12T02:52:14.239Z,53.03
2023-02-12T02:57:28.250Z,55.03
2023-02-12T03:02:33.032Z,56.40
2023-02-12T03:07:33.116Z,56.87
2023-02-12T03:12:44.722Z,58.43
2023-02-12T03:17:46.680Z,50.30
2023-02-12T03:22:48.817Z,54.90
2023-02-12T03:28:04.133Z,52.33
2023-02-12T03:33:25.158Z,55.03
2023-02-12T03:38:47.855Z,57.83
2023-02-12T03:44:21.336Z,53.43
2023-02-12T03:49:34.525Z,51.83
2023-02-12T03:54:27.227Z,55.83
2023-02-12T03:59:22.148Z,54.33
2023-02-12T04:04:14.460Z,63.33
2023-02-12T04:09:11.598Z,56.43
2023-02-12T04:14:26.987Z,64.53
2023-02-12T04:19:34.665Z,59.17
2023-02-12T04:25:24.920Z,50.27
2023-02-12T04:30:35.258Z,54.90
2023-02-12T04:35:54.482Z,57.87
2023-02-12T04:40:48.531Z,51.67
2023-02-12T04:45:40.393Z,52.07
2023-02-12T04:50:41.396Z,52.37
2023-02-12T04:55:33.107Z,49.53
2023-02-12T05:00:25.402Z,51.30
2023-02-12T05:05:17.537Z,51.07
2023-02-12T05:10:10.035Z,51.97
2023-02-12T05:15:03.744Z,58.10
2023-02-12T05:19:55.500Z,56.63
2023-02-12T05:24:47.390Z,53.90
2023-02-12T05:29:39.230Z,50.30
2023-02-12T05:34:31.296Z,54.33
2023-02-12T05:39:23.136Z,54.37
2023-02-12T05:44:15.234Z,48.47
2023-02-12T05:49:08.838Z,57.37
2023-02-12T05:54:03.967Z,50.63
2023-02-12T05:59:13.373Z,56.10
2023-02-12T06:04:13.270Z,53.13
2023-02-12T06:09:05.117Z,52.17
2023-02-12T06:13:56.966Z,59.23
2023-02-12T06:18:50.633Z,53.37
2023-02-12T06:23:42.855Z,55.43
2023-02-12T06:28:36.671Z,57.17
2023-02-12T06:33:28.675Z,54.27
2023-02-12T06:38:20.776Z,48.30
2023-02-12T06:43:12.782Z,53.63
2023-02-12T06:53:12.499Z,54.63
2023-02-12T06:58:05.411Z,57.97
2023-02-12T07:02:58.611Z,52.73
2023-02-12T07:07:50.934Z,59.27
2023-02-12T07:12:43.080Z,51.13
2023-02-12T07:17:35.442Z,50.90
2023-02-12T07:22:27.226Z,57.37
2023-02-12T07:27:18.979Z,55.03
2023-02-12T07:32:11.681Z,53.00
2023-02-12T07:37:04.179Z,57.53
2023-02-12T07:41:57.865Z,51.27
2023-02-12T07:46:50.075Z,52.97
2023-02-12T07:51:43.074Z,50.13
2023-02-12T07:56:38.536Z,47.03
2023-02-12T08:01:39.522Z,54.10
2023-02-12T08:06:35.676Z,51.00
2023-02-12T08:11:29.507Z,51.60
2023-02-12T08:16:26.724Z,58.17
2023-02-12T08:21:22.956Z,55.03
2023-02-12T08:26:23.242Z,56.57
2023-02-12T08:31:20.146Z,56.00
2023-02-12T08:36:15.910Z,56.07
2023-02-12T08:41:15.039Z,55.33
2023-02-12T08:46:23.962Z,53.43
2023-02-12T08:51:23.702Z,53.77
2023-02-12T08:56:18.401Z,58.07
2023-02-12T09:01:17.445Z,58.13
2023-02-12T09:06:10.554Z,54.27
2023-02-12T09:16:25.086Z,55.40
2023-02-12T09:21:20.166Z,53.70
2023-02-12T09:26:22.520Z,55.37
2023-02-12T09:31:27.997Z,54.53
2023-02-12T09:36:21.143Z,53.00
2023-02-12T09:41:46.841Z,43.70
2023-02-12T09:47:15.833Z,37.63
2023-02-12T09:52:17.798Z,41.47
2023-02-12T09:57:23.609Z,37.40
2023-02-12T10:02:18.993Z,38.87
2023-02-12T10:08:00.123Z,37.97
2023-02-12T10:13:06.328Z,39.20
2023-02-12T10:18:21.465Z,37.83
2023-02-12T10:23:59.552Z,40.40
2023-02-12T10:28:52.644Z,37.30
2023-02-12T10:33:51.155Z,37.67
2023-02-12T10:38:53.331Z,40.67
2023-02-12T10:43:45.139Z,39.13
2023-02-12T10:48:41.929Z,38.57
2023-02-12T10:58:57.843Z,38.30
2023-02-12T11:03:49.897Z,36.00
2023-02-12T11:08:42.286Z,35.13
2023-02-12T11:13:35.736Z,37.17
2023-02-12T11:18:34.881Z,35.93
2023-02-12T11:23:33.956Z,33.40
2023-02-12T11:28:26.507Z,34.20
2023-02-12T11:33:30.937Z,37.87
2023-02-12T11:38:28.613Z,33.60
2023-02-12T11:43:21.072Z,35.10
2023-02-12T11:48:28.714Z,33.53
2023-02-12T11:53:28.513Z,33.57
2023-02-12T11:58:26.442Z,36.30
2023-02-12T12:03:35.484Z,30.43
2023-02-12T12:08:51.183Z,32.20
2023-02-12T12:13:54.600Z,22.17
2023-02-12T12:19:18.349Z,31.83
2023-02-12T12:25:16.555Z,28.20
2023-02-12T12:30:41.584Z,31.97
2023-02-12T12:36:11.175Z,27.57
2023-02-12T12:41:32.056Z,25.77
2023-02-12T12:46:44.668Z,25.90
2023-02-12T12:52:02.550Z,24.37
2023-02-12T12:57:18.785Z,21.57
2023-02-12T13:02:34.538Z,19.40
2023-02-12T13:08:08.750Z,17.80
2023-02-12T13:13:24.158Z,17.07
2023-02-12T13:18:27.558Z,15.73
2023-02-12T13:24:02.031Z,17.43
2023-02-12T13:29:02.391Z,14.57
2023-02-12T13:34:00.968Z,13.37
2023-02-12T13:38:58.337Z,12.77
2023-02-12T13:44:09.364Z,16.57
2023-02-12T13:49:55.831Z,13.27
2023-02-12T13:55:40.157Z,12.30
2023-02-12T14:00:52.110Z,7.33
2023-02-12T14:05:44.183Z,10.60
2023-02-12T14:10:41.573Z,11.50
2023-02-12T14:15:39.683Z,7.03
2023-02-12T14:20:37.015Z,6.67
2023-02-12T14:25:44.619Z,8.63
2023-02-12T14:30:40.367Z,8.07
2023-02-12T14:35:42.034Z,7.47
2023-02-12T14:40:38.346Z,8.43
2023-02-12T14:45:39.010Z,8.13
2023-02-12T14:50:42.005Z,6.43
2023-02-12T15:00:49.796Z,6.60
2023-02-12T15:05:50.713Z,6.53
2023-02-12T15:16:55.939Z,5.87
2023-02-12T15:21:48.840Z,7.00
2023-02-12T15:26:50.481Z,8.83
2023-02-12T15:31:42.951Z,7.60
2023-02-12T15:36:37.332Z,8.40
2023-02-12T15:41:41.989Z,7.17
2023-02-12T15:46:35.136Z,7.37
2023-02-12T15:51:41.628Z,8.70
2023-02-12T15:56:37.050Z,13.63
2023-02-12T16:01:33.350Z,9.10
2023-02-12T16:06:30.836Z,9.63
2023-02-12T16:11:27.759Z,10.67
2023-02-12T16:21:30.594Z,10.87
2023-02-12T16:26:28.054Z,9.40
2023-02-12T16:31:33.829Z,9.77
2023-02-12T16:36:31.286Z,9.30
2023-02-12T16:41:35.248Z,10.37
2023-02-12T16:46:41.487Z,10.33
2023-02-12T16:56:44.286Z,12.03
2023-02-12T17:11:57.645Z,12.50
2023-02-12T17:32:12.360Z,11.43
2023-02-12T17:42:16.041Z,10.90
2023-02-12T17:47:09.670Z,12.33
2023-02-12T17:52:07.267Z,13.07
2023-02-12T18:02:05.650Z,12.33
2023-02-12T18:12:06.066Z,13.83
2023-02-12T18:22:08.058Z,12.80
2023-02-12T18:27:01.756Z,14.93
2023-02-12T18:31:55.612Z,15.23
2023-02-12T18:36:47.599Z,16.33
2023-02-12T18:41:41.966Z,14.00
2023-02-12T19:07:03.294Z,12.53
2023-02-12T19:11:58.395Z,17.10
2023-02-12T19:27:04.345Z,17.10
2023-02-12T19:31:58.353Z,17.23
2023-02-12T19:36:54.665Z,17.37
2023-02-12T19:46:54.495Z,18.10
2023-02-12T20:02:04.387Z,17.80
2023-02-12T20:12:04.545Z,20.60
2023-02-12T20:22:06.396Z,21.50
2023-02-12T20:37:17.722Z,20.43
2023-02-12T20:42:10.369Z,17.10
2023-02-12T20:47:03.931Z,18.87
2023-02-12T20:51:56.916Z,26.67
2023-02-12T20:56:51.498Z,29.97
2023-02-12T21:01:44.237Z,29.63
2023-02-12T21:06:41.267Z,25.13
2023-02-12T21:11:35.104Z,22.03
2023-02-12T21:21:45.559Z,24.63
2023-02-12T21:26:37.694Z,23.90
2023-02-12T21:36:47.121Z,24.67
2023-02-12T21:41:41.871Z,26.23
2023-02-12T21:46:36.400Z,26.47
2023-02-12T21:51:32.988Z,29.10
2023-02-12T21:56:26.736Z,31.53
2023-02-12T22:01:23.242Z,28.30
2023-02-12T22:06:19.581Z,27.80
2023-02-12T22:11:13.371Z,24.37
2023-02-12T22:16:13.961Z,22.13
2023-02-12T22:21:11.287Z,25.90
2023-02-12T22:26:13.882Z,23.53
2023-02-12T22:31:09.381Z,25.88
2023-02-12T22:36:07.929Z,26.27
2023-02-12T22:41:00.103Z,20.67
2023-02-12T22:45:52.268Z,22.13
2023-02-12T22:50:44.146Z,23.23
2023-02-12T22:55:37.025Z,23.50
2023-02-12T23:00:28.839Z,26.77
2023-02-12T23:05:20.938Z,23.87
2023-02-12T23:10:13.428Z,25.27
2023-02-12T23:15:05.772Z,25.73
2023-02-12T23:19:57.865Z,31.87
2023-02-12T23:24:51.011Z,26.10
2023-02-12T23:29:42.860Z,25.03
2023-02-12T23:34:34.880Z,21.80
2023-02-12T23:39:26.614Z,21.67
2023-02-12T23:44:18.382Z,25.50
2023-02-12T23:49:10.633Z,24.90
2023-02-12T23:54:02.882Z,26.40
2023-02-12T23:58:58.079Z,24.80
